Time;durP1;ratioP1;P1;durP2;ratioP2;P2;SDS_P1;SDS_P2;PMS_P1;PMS_P2;Temp;Humidity;BMP_temperature;BMP_pressure;BME280_temperature;BME280_humidity;BME280_pressure;Samples;Min_cycle;Max_cycle;Signal;HPM_P1;HPM_P2
2021/03/07 00:00:17;;;;;;;120.87;52.80;;;;;;;-6.71;65.77;95478.23;1805351;79;21131;-51
2021/03/07 00:02:45;;;;;;;132.55;61.35;;;;;;;-6.75;66.22;95478.66;1797808;77;21116;-51
2021/03/07 00:05:15;;;;;;;144.77;65.45;;;;;;;-6.70;66.25;95483.81;1751185;80;21429;-50
2021/03/07 00:07:45;;;;;;;153.75;66.77;;;;;;;-6.68;65.96;95490.97;1805135;77;21139;-51
2021/03/07 00:10:16;;;;;;;124.90;56.02;;;;;;;-6.75;65.80;95485.34;1805320;78;21151;-51
2021/03/07 00:12:45;;;;;;;120.25;56.80;;;;;;;-6.85;65.86;95478.22;1796889;77;21108;-51
2021/03/07 00:15:14;;;;;;;114.92;55.63;;;;;;;-6.88;65.95;95484.98;1805396;79;21131;-51
2021/03/07 00:17:43;;;;;;;135.97;61.50;;;;;;;-6.93;65.44;95487.04;1802289;77;22268;-51
2021/03/07 00:20:14;;;;;;;170.45;79.42;;;;;;;-7.09;65.63;95487.88;1805127;77;21064;-50
2021/03/07 00:22:44;;;;;;;148.93;71.97;;;;;;;-7.14;66.06;95480.81;1802273;78;21410;-51
2021/03/07 00:25:14;;;;;;;151.97;75.52;;;;;;;-7.13;66.12;95475.70;1796602;77;21183;-52
2021/03/07 00:27:42;;;;;;;164.77;74.87;;;;;;;-7.09;66.09;95473.18;1798732;77;21069;-51
2021/03/07 00:30:13;;;;;;;169.40;74.42;;;;;;;-7.08;66.03;95467.53;1750061;82;22010;-51
2021/03/07 00:32:42;;;;;;;169.22;74.05;;;;;;;-7.02;66.07;95468.92;1805207;78;21103;-50
2021/03/07 00:35:11;;;;;;;143.28;68.57;;;;;;;-6.98;65.62;95467.17;1805295;77;21496;-51
2021/03/07 00:37:39;;;;;;;149.57;68.22;;;;;;;-6.85;65.54;95460.84;1803735;79;21064;-50
2021/03/07 00:40:10;;;;;;;156.57;74.25;;;;;;;-6.69;65.12;95461.31;1751316;81;21113;-50
2021/03/07 00:42:44;;;;;;;286.45;111.55;;;;;;;-6.56;64.78;95452.30;1713381;81;21514;-51
2021/03/07 00:45:14;;;;;;;241.80;96.05;;;;;;;-6.56;64.28;95442.16;1751422;80;21085;-49
2021/03/07 00:47:42;;;;;;;188.12;80.87;;;;;;;-6.72;64.37;95442.47;1802234;77;21040;-51
2021/03/07 00:50:23;;;;;;;214.40;93.22;;;;;;;-6.81;64.54;95433.69;1794003;77;21104;-50
2021/03/07 00:52:56;;;;;;;160.18;73.87;;;;;;;-6.88;64.99;95429.40;1736816;81;21196;-51
2021/03/07 00:55:25;;;;;;;178.00;78.72;;;;;;;-6.77;64.54;95430.59;1713688;83;21264;-50
2021/03/07 00:57:53;;;;;;;175.90;80.15;;;;;;;-6.87;63.67;95423.72;1742756;82;21121;-51
2021/03/07 01:00:27;;;;;;;196.60;85.75;;;;;;;-7.16;63.81;95416.77;1796210;77;21069;-55
2021/03/07 01:02:56;;;;;;;194.13;83.25;;;;;;;-7.38;64.54;95426.34;1750977;80;21141;-52
2021/03/07 01:05:29;;;;;;;185.65;82.90;;;;;;;-7.41;64.93;95416.27;1802213;77;21104;-51
2021/03/07 01:07:57;;;;;;;167.18;77.30;;;;;;;-7.37;64.84;95413.98;1799337;78;21470;-52
2021/03/07 01:10:30;;;;;;;151.18;67.30;;;;;;;-7.32;64.59;95414.38;1802341;77;21100;-51
2021/03/07 01:12:57;;;;;;;;;;;;;;;-7.31;64.45;95410.60;1801656;77;21093;-51
2021/03/07 01:15:28;;;;;;;130.63;60.75;;;;;;;-7.37;64.20;95399.86;1750190;80;20219;-50
2021/03/07 01:17:58;;;;;;;144.72;65.60;;;;;;;-7.38;64.83;95400.97;1713468;81;21069;-51
2021/03/07 01:20:27;;;;;;;170.82;77.87;;;;;;;-7.24;64.54;95398.86;1739803;80;21215;-51
2021/03/07 01:22:56;;;;;;;164.72;75.28;;;;;;;-7.22;64.21;95401.99;1800359;78;21188;-51
2021/03/07 01:25:27;;;;;;;175.72;80.22;;;;;;;-7.43;64.37;95399.23;1750926;80;21117;-51
2021/03/07 01:27:55;;;;;;;230.57;96.05;;;;;;;-7.49;65.09;95401.06;1713416;83;21134;-51
2021/03/07 01:30:23;;;;;;;193.75;84.20;;;;;;;-7.50;64.91;95396.82;1751275;80;21173;-53
2021/03/07 01:32:53;;;;;;;219.45;92.20;;;;;;;-7.58;65.03;95391.73;1748143;81;22233;-52
2021/03/07 01:35:21;;;;;;;250.70;96.75;;;;;;;-7.65;65.15;95387.97;1738995;81;21610;-52
2021/03/07 01:37:50;;;;;;;305.52;118.13;;;;;;;-7.69;65.14;95393.72;1802441;77;21175;-52
2021/03/07 01:40:22;;;;;;;198.82;82.12;;;;;;;-7.87;65.18;95389.50;1790906;77;21077;-51
2021/03/07 01:42:53;;;;;;;188.32;75.17;;;;;;;-7.95;65.57;95381.73;1751537;80;21073;-50
2021/03/07 01:45:22;;;;;;;153.18;67.05;;;;;;;-7.97;65.85;95378.59;1713362;81;21267;-50
2021/03/07 01:47:55;;;;;;;144.25;60.95;;;;;;;-7.95;65.86;95377.73;1734767;80;21150;-51
2021/03/07 01:50:28;;;;;;;144.28;65.67;;;;;;;-8.01;65.77;95377.66;1802412;77;21222;-50
2021/03/07 01:52:57;;;;;;;168.60;75.15;;;;;;;-8.06;65.73;95372.47;1805301;79;21168;-51
2021/03/07 01:55:27;;;;;;;153.50;67.12;;;;;;;-8.03;65.94;95368.39;1802573;78;21111;-50
2021/03/07 01:58:15;;;;;;;122.40;54.38;;;;;;;-7.94;65.78;95367.28;1805023;78;21182;-51
2021/03/07 02:00:44;;;;;;;188.15;85.97;;;;;;;-7.89;65.61;95363.67;1798711;77;21604;-50
2021/03/07 02:03:12;;;;;;;160.97;70.08;;;;;;;-7.79;65.85;95364.12;1751084;80;21090;-51
2021/03/07 02:05:43;;;;;;;118.00;53.73;;;;;;;-7.60;65.75;95357.08;1803616;77;21489;-51
2021/03/07 02:08:11;;;;;;;136.30;62.83;;;;;;;-7.40;65.42;95362.53;1750957;81;21082;-50
2021/03/07 02:10:44;;;;;;;134.45;63.08;;;;;;;-7.28;65.03;95355.98;1794573;79;21309;-51
2021/03/07 02:13:20;;;;;;;118.25;53.20;;;;;;;-7.23;64.53;95352.33;1779560;77;21907;-51
2021/03/07 02:15:54;;;;;;;132.82;55.45;;;;;;;-7.16;64.36;95344.61;1793443;77;21045;-49
2021/03/07 02:18:24;;;;;;;116.85;49.85;;;;;;;-7.16;64.38;95347.28;1805230;79;21100;-50
2021/03/07 02:20:56;;;;;;;115.42;51.13;;;;;;;-7.14;64.11;95351.75;1802004;77;21131;-49
2021/03/07 02:23:28;;;;;;;116.10;52.70;;;;;;;-7.25;63.91;95349.19;1751319;80;21362;-50
2021/03/07 02:25:58;;;;;;;131.43;58.33;;;;;;;-7.40;63.54;95333.69;1750493;81;21268;-51
2021/03/07 02:28:28;;;;;;;212.40;80.67;;;;;;;-7.60;63.77;95338.39;1739269;81;21169;-51
2021/03/07 02:30:56;;;;;;;173.62;73.90;;;;;;;-7.69;63.92;95332.30;1741442;81;21129;-51
2021/03/07 02:33:36;;;;;;;200.30;80.75;;;;;;;-7.83;64.03;95327.70;1741186;81;21228;-51
2021/03/07 02:36:12;;;;;;;175.00;73.45;;;;;;;-7.99;64.33;95318.62;1802239;77;22053;-50
2021/03/07 02:38:40;;;;;;;157.72;68.62;;;;;;;-8.09;64.74;95314.40;1802704;77;21187;-50
2021/03/07 02:41:09;;;;;;;285.65;105.70;;;;;;;-8.14;64.95;95314.56;1751294;81;21077;-51
2021/03/07 02:43:45;;;;;;;165.18;68.35;;;;;;;-8.06;65.06;95304.98;1724442;82;21157;-52
2021/03/07 02:46:17;;;;;;;118.37;53.08;;;;;;;-8.00;65.05;95302.38;1796523;77;21112;-51
2021/03/07 02:48:49;;;;;;;111.27;49.70;;;;;;;-8.01;65.18;95304.81;1796791;78;21203;-51
2021/03/07 02:51:18;;;;;;;133.03;60.10;;;;;;;-8.04;64.90;95307.55;1799393;77;21504;-50
2021/03/07 02:53:46;;;;;;;170.40;77.80;;;;;;;-8.16;64.81;95313.30;1799512;78;21138;-51
2021/03/07 02:56:17;;;;;;;111.72;53.95;;;;;;;-8.20;64.94;95309.73;1796482;79;21103;-50
2021/03/07 02:58:46;;;;;;;130.52;58.58;;;;;;;-8.13;64.94;95314.00;1802698;77;21654;-52
2021/03/07 03:01:16;;;;;;;153.82;70.32;;;;;;;-8.16;65.04;95311.44;1805231;79;21435;-54
2021/03/07 03:03:46;;;;;;;97.35;43.85;;;;;;;-8.20;65.37;95307.87;1799482;77;21077;-51
2021/03/07 03:06:15;;;;;;;96.63;41.80;;;;;;;-8.13;64.84;95304.66;1751618;80;21580;-50
2021/03/07 03:08:53;;;;;;;107.40;45.12;;;;;;;-8.29;64.53;95305.74;1802300;77;21151;-52
2021/03/07 03:11:25;;;;;;;122.40;52.80;;;;;;;-8.52;64.57;95299.55;1805395;78;21072;-50
2021/03/07 03:13:54;;;;;;;258.23;105.40;;;;;;;-8.71;64.78;95293.75;1796804;79;21910;-50
2021/03/07 03:16:24;;;;;;;134.63;59.18;;;;;;;-8.84;65.08;95286.70;1750891;80;21192;-50
2021/03/07 03:18:54;;;;;;;128.62;58.02;;;;;;;-8.93;65.55;95293.13;1796711;77;21170;-50
2021/03/07 03:21:22;;;;;;;135.55;61.85;;;;;;;-8.89;66.02;95297.49;1795728;77;21053;-51
2021/03/07 03:23:51;;;;;;;184.22;83.27;;;;;;;-8.85;66.07;95292.33;1750639;81;21046;-50
2021/03/07 03:26:20;;;;;;;150.18;64.22;;;;;;;-8.75;66.45;95294.68;1794837;77;21193;-51
2021/03/07 03:28:51;;;;;;;97.20;47.13;;;;;;;-8.57;66.11;95297.05;1751758;80;21065;-53
2021/03/07 03:31:20;;;;;;;91.45;41.85;;;;;;;-8.59;65.67;95287.25;1713258;81;21188;-51
2021/03/07 03:33:49;;;;;;;118.20;50.52;;;;;;;-8.75;65.73;95287.48;1730760;82;21488;-51
2021/03/07 03:36:17;;;;;;;132.00;68.52;;;;;;;-8.87;65.72;95289.97;1748461;80;21100;-50
2021/03/07 03:38:49;;;;;;;106.78;49.85;;;;;;;-8.94;66.60;95292.33;1712958;81;21420;-51
2021/03/07 03:41:19;;;;;;;102.82;46.13;;;;;;;-8.76;66.41;95289.11;1751431;80;21569;-50
2021/03/07 03:43:52;;;;;;;101.18;44.18;;;;;;;-8.78;66.02;95284.65;1750749;80;21081;-51
2021/03/07 03:46:21;;;;;;;117.93;53.55;;;;;;;-8.92;66.01;95296.79;1805283;78;21100;-50
2021/03/07 03:48:59;;;;;;;104.43;46.75;;;;;;;-9.05;66.35;95284.38;1805434;79;21468;-50
2021/03/07 03:51:27;;;;;;;100.15;44.40;;;;;;;-8.94;66.87;95283.00;1791158;77;21223;-50
2021/03/07 03:53:55;;;;;;;116.15;54.03;;;;;;;-8.88;65.98;95275.64;1751357;80;21109;-50
2021/03/07 03:56:24;;;;;;;107.17;49.23;;;;;;;-8.97;65.86;95270.30;1713381;81;21198;-51
2021/03/07 03:58:52;;;;;;;109.48;49.80;;;;;;;-9.03;66.00;95255.55;1733068;82;21085;-52
2021/03/07 04:01:20;;;;;;;101.15;46.00;;;;;;;-9.01;65.78;95249.91;1740198;82;21058;-50
2021/03/07 04:03:52;;;;;;;109.20;47.88;;;;;;;-9.04;65.61;95243.88;1805263;79;21462;-50
2021/03/07 04:06:25;;;;;;;98.60;43.58;;;;;;;-9.05;65.77;95242.32;1799250;79;21100;-50
2021/03/07 04:08:54;;;;;;;98.52;44.88;;;;;;;-9.01;65.87;95242.72;1805165;77;21191;-51
2021/03/07 04:11:22;;;;;;;102.17;48.85;;;;;;;-8.95;65.87;95244.66;1796408;77;21553;-50
2021/03/07 04:13:51;;;;;;;104.92;47.23;;;;;;;-8.87;65.78;95240.67;1792598;79;21470;-50
2021/03/07 04:16:21;;;;;;;103.05;43.38;;;;;;;-8.72;65.90;95246.86;1750956;81;21374;-52
2021/03/07 04:18:50;;;;;;;104.23;44.70;;;;;;;-8.64;65.28;95249.53;1749943;81;21525;-52
2021/03/07 04:21:18;;;;;;;94.13;42.00;;;;;;;-8.75;65.04;95237.37;1738974;81;21078;-51
2021/03/07 04:23:46;;;;;;;101.55;48.50;;;;;;;-8.92;65.00;95229.41;1713156;82;21588;-51
2021/03/07 04:26:15;;;;;;;110.35;46.85;;;;;;;-9.05;65.21;95225.00;1751543;80;21157;-50
2021/03/07 04:28:44;;;;;;;90.72;42.35;;;;;;;-9.08;65.38;95229.06;1799300;77;21256;-50
2021/03/07 04:31:13;;;;;;;89.13;42.35;;;;;;;-9.06;65.56;95224.77;1794476;79;21084;-50
2021/03/07 04:33:42;;;;;;;93.50;42.78;;;;;;;-8.94;65.81;95217.72;1751323;80;21050;-51
2021/03/07 04:36:11;;;;;;;99.85;45.52;;;;;;;-8.79;65.64;95217.25;1793464;77;21488;-51
2021/03/07 04:38:39;;;;;;;98.40;46.10;;;;;;;-8.62;65.16;95213.23;1774578;79;21075;-49
2021/03/07 04:41:07;;;;;;;85.05;42.05;;;;;;;-8.43;64.59;95208.34;1799709;77;22620;-50
2021/03/07 04:43:51;;;;;;;93.07;43.68;;;;;;;-8.47;64.16;95196.75;1799325;77;21112;-50
2021/03/07 04:46:20;;;;;;;84.85;37.65;;;;;;;-8.62;64.33;95195.34;1751346;80;21069;-50
2021/03/07 04:48:50;;;;;;;182.10;73.30;;;;;;;-8.77;64.20;95197.72;1802203;77;21647;-50
2021/03/07 04:51:20;;;;;;;145.82;65.75;;;;;;;-9.01;64.38;95205.95;1805385;79;21119;-51
2021/03/07 04:53:48;;;;;;;141.15;65.62;;;;;;;-9.12;64.57;95200.69;1799104;77;21252;-51
2021/03/07 04:56:16;;;;;;;132.18;58.45;;;;;;;-9.09;65.03;95202.19;1749730;80;21140;-51
2021/03/07 04:58:45;;;;;;;123.20;53.98;;;;;;;-8.91;64.79;95199.77;1751163;81;21550;-51
2021/03/07 05:01:13;;;;;;;98.20;47.08;;;;;;;-8.74;64.61;95198.42;1801514;77;21171;-51
2021/03/07 05:03:42;;;;;;;87.02;42.10;;;;;;;-8.60;64.20;95198.47;1751146;81;21153;-51
2021/03/07 05:06:12;;;;;;;104.50;48.30;;;;;;;-8.60;63.98;95189.70;1791930;77;21322;-50
2021/03/07 05:08:40;;;;;;;127.10;60.05;;;;;;;-8.69;64.28;95182.25;1751466;80;21101;-51
2021/03/07 05:11:09;;;;;;;97.70;48.10;;;;;;;-8.76;64.03;95185.96;1713019;83;21109;-52
2021/03/07 05:13:37;;;;;;;115.05;57.15;;;;;;;-8.90;64.08;95189.34;1751328;80;21136;-52
2021/03/07 05:16:07;;;;;;;138.57;66.85;;;;;;;-9.00;64.46;95183.01;1789642;77;21143;-50
2021/03/07 05:18:36;;;;;;;139.62;63.92;;;;;;;-8.99;64.72;95176.58;1750918;80;21370;-51
2021/03/07 05:21:05;;;;;;;128.35;59.60;;;;;;;-8.98;64.72;95167.48;1793626;77;21120;-49
2021/03/07 05:23:33;;;;;;;140.75;67.78;;;;;;;-8.97;64.80;95168.25;1750210;80;21805;-50
2021/03/07 05:26:01;;;;;;;168.95;74.87;;;;;;;-9.00;64.99;95164.36;1802417;77;21139;-51
2021/03/07 05:28:30;;;;;;;149.40;71.35;;;;;;;-8.92;64.84;95167.55;1803354;77;21480;-53
2021/03/07 05:30:58;;;;;;;154.00;65.52;;;;;;;-8.91;64.89;95163.79;1750049;81;21187;-51
2021/03/07 05:33:27;;;;;;;132.63;58.35;;;;;;;-8.88;64.96;95154.39;1805127;79;21159;-51
2021/03/07 05:35:55;;;;;;;183.25;78.70;;;;;;;-8.83;65.00;95157.69;1805191;79;21135;-51
2021/03/07 05:38:25;;;;;;;241.57;97.20;;;;;;;-8.89;65.04;95150.92;1793468;77;21148;-51
2021/03/07 05:40:54;;;;;;;204.38;83.60;;;;;;;-8.93;65.17;95142.57;1751562;80;21180;-51
2021/03/07 05:43:24;;;;;;;175.22;81.92;;;;;;;-8.95;65.23;95154.86;1713124;82;21156;-50
2021/03/07 05:45:53;;;;;;;190.30;84.83;;;;;;;-9.00;65.17;95136.38;1751317;81;21073;-51
2021/03/07 05:48:22;;;;;;;213.35;97.22;;;;;;;-8.98;65.14;95142.17;1805201;79;21060;-50
2021/03/07 05:50:51;;;;;;;136.10;62.38;;;;;;;-8.90;65.17;95132.05;1805211;79;21088;-50
2021/03/07 05:53:20;;;;;;;170.05;83.45;;;;;;;-8.91;64.90;95123.81;1802158;77;21036;-50
2021/03/07 05:55:48;;;;;;;261.82;118.08;;;;;;;-9.00;65.02;95123.06;1804721;77;21274;-51
2021/03/07 05:58:17;;;;;;;181.37;84.95;;;;;;;-8.95;65.79;95125.55;1751429;80;21148;-51
2021/03/07 06:00:46;;;;;;;156.07;75.78;;;;;;;-8.69;66.02;95106.28;1805155;79;21532;-51
2021/03/07 06:03:15;;;;;;;122.72;59.73;;;;;;;-8.57;65.75;95111.21;1802053;77;21032;-50
2021/03/07 06:05:43;;;;;;;115.40;59.15;;;;;;;-8.49;65.92;95098.92;1802264;77;21579;-51
2021/03/07 06:08:11;;;;;;;125.45;65.78;;;;;;;-8.40;65.81;95098.36;1744302;79;21460;-51
2021/03/07 06:10:41;;;;;;;120.53;63.30;;;;;;;-8.31;65.83;95101.76;1799167;77;21087;-50
2021/03/07 06:13:10;;;;;;;195.00;86.53;;;;;;;-8.15;65.85;95100.89;1805210;78;21048;-51
2021/03/07 06:15:45;;;;;;;186.97;85.75;;;;;;;-7.85;66.08;95096.33;1802448;79;21069;-50
2021/03/07 06:18:20;;;;;;;131.45;66.12;;;;;;;-7.46;65.46;95095.91;1805278;77;21020;-51
2021/03/07 06:20:52;;;;;;;110.17;56.05;;;;;;;-7.14;64.89;95099.20;1805120;77;21362;-50
2021/03/07 06:23:33;;;;;;;98.22;50.60;;;;;;;-6.82;64.19;95085.30;1802222;77;21012;-51
2021/03/07 06:26:10;;;;;;;62.65;34.20;;;;;;;-6.59;63.58;95091.81;1805246;79;21461;-50
2021/03/07 06:28:39;;;;;;;63.15;34.00;;;;;;;-6.39;63.03;95079.46;1799257;77;21040;-51
2021/03/07 06:31:29;;;;;;;82.75;43.48;;;;;;;-6.28;62.75;95077.38;1799372;77;21160;-50
2021/03/07 06:33:59;;;;;;;68.95;37.08;;;;;;;-6.11;62.74;95079.85;1805381;79;21187;-50
2021/03/07 06:36:28;;;;;;;53.70;30.00;;;;;;;-5.86;62.37;95079.27;1793403;79;21163;-51
2021/03/07 06:39:02;;;;;;;58.87;31.12;;;;;;;-5.83;62.21;95079.39;1766874;77;21315;-51
2021/03/07 06:41:32;;;;;;;51.77;29.32;;;;;;;-5.73;62.24;95085.61;1751299;80;21062;-51
2021/03/07 06:44:12;;;;;;;64.42;36.40;;;;;;;-5.62;62.03;95084.59;1751543;81;21069;-52
2021/03/07 06:46:45;;;;;;;55.25;32.40;;;;;;;-5.60;61.68;95080.44;1739185;81;22129;-51
2021/03/07 06:49:25;;;;;;;60.15;34.00;;;;;;;-5.53;61.97;95076.66;1713242;82;21608;-52
2021/03/07 06:52:00;;;;;;;77.50;42.45;;;;;;;-5.43;61.47;95077.51;1732437;80;21082;-50
2021/03/07 06:54:25;;;;;;;57.05;33.55;;;;;;;-5.41;61.54;95077.95;1725420;80;21192;-51
2021/03/07 06:56:53;;;;;;;62.78;35.68;;;;;;;-5.35;61.57;95075.27;1799320;77;21607;-51
2021/03/07 06:59:23;;;;;;;68.02;38.73;;;;;;;-5.19;61.53;95078.81;1791681;78;21347;-51
2021/03/07 07:01:55;;;;;;;61.95;33.75;;;;;;;-4.93;61.50;95072.45;1724030;82;21102;-51
2021/03/07 07:04:27;;;;;;;66.82;36.50;;;;;;;-4.72;60.92;95071.67;1799753;77;21172;-53
2021/03/07 07:07:04;;;;;;;62.58;36.35;;;;;;;-4.66;61.08;95064.38;1750904;80;21152;-51
2021/03/07 07:09:34;;;;;;;54.70;32.75;;;;;;;-4.52;60.93;95062.08;1805124;77;21132;-51
2021/03/07 07:12:09;;;;;;;64.65;36.35;;;;;;;-4.37;61.16;95054.61;1798372;77;21265;-51
2021/03/07 07:14:42;;;;;;;79.75;44.90;;;;;;;-4.18;60.90;95051.22;1751245;80;21557;-52
2021/03/07 07:17:18;;;;;;;79.85;46.68;;;;;;;-4.00;60.93;95052.42;1805387;79;21576;-52
2021/03/07 07:19:47;;;;;;;84.85;46.68;;;;;;;-3.66;60.74;95037.67;1805414;79;21119;-51
2021/03/07 07:22:17;;;;;;;102.60;53.58;;;;;;;-3.19;60.77;95036.44;1798774;79;21184;-52
2021/03/07 07:24:46;;;;;;;109.30;57.15;;;;;;;-2.66;60.20;95044.95;1751116;80;21192;-50
2021/03/07 07:27:14;;;;;;;86.30;47.05;;;;;;;-2.23;59.68;95029.79;1805234;79;21143;-51
2021/03/07 07:29:43;;;;;;;94.92;53.85;;;;;;;-1.80;59.15;95033.38;1802671;79;21247;-51
2021/03/07 07:32:32;;;;;;;108.55;60.33;;;;;;;-1.44;58.66;95017.92;1749864;80;21082;-55
2021/03/07 07:35:10;;;;;;;113.28;61.73;;;;;;;-1.27;58.44;95025.48;1737731;82;21066;-52
2021/03/07 07:37:50;;;;;;;109.05;59.58;;;;;;;-1.00;58.23;95014.86;1794204;77;22145;-51
2021/03/07 07:40:19;;;;;;;114.08;62.40;;;;;;;-0.70;57.96;95025.83;1805277;79;21075;-51
2021/03/07 07:42:57;;;;;;;118.72;63.63;;;;;;;-0.53;57.19;95015.00;1805339;78;21564;-52
2021/03/07 07:45:26;;;;;;;126.10;71.65;;;;;;;-0.37;57.36;95003.40;1803053;77;21139;-52
2021/03/07 07:47:56;;;;;;;142.40;79.00;;;;;;;-0.09;57.13;95003.08;1805411;79;21175;-52
2021/03/07 07:50:34;;;;;;;112.85;64.92;;;;;;;0.24;56.58;94999.67;1796849;77;21413;-52
2021/03/07 07:53:12;;;;;;;93.33;53.23;;;;;;;0.47;55.64;94993.48;1802447;79;21165;-53
2021/03/07 07:55:52;;;;;;;80.25;47.40;;;;;;;0.73;55.62;94992.45;1750897;80;21204;-51
2021/03/07 07:58:42;;;;;;;73.37;44.85;;;;;;;1.04;55.60;94980.45;1793804;77;21537;-52
2021/03/07 08:01:13;;;;;;;65.10;38.75;;;;;;;1.39;54.83;94972.44;1751490;81;21438;-51
2021/03/07 08:03:44;;;;;;;68.75;42.23;;;;;;;1.77;53.55;94973.10;1713060;83;21152;-53
2021/03/07 08:06:40;;;;;;;45.78;30.20;;;;;;;1.98;52.80;94952.17;1751491;80;21502;-52
2021/03/07 08:09:38;;;;;;;23.40;15.95;;;;;;;2.14;51.24;94955.28;1751301;80;21702;-52
2021/03/07 08:12:44;;;;;;;26.93;18.02;;;;;;;2.36;48.48;94943.23;1798640;77;21116;-52
2021/03/07 08:15:31;;;;;;;15.68;11.08;;;;;;;2.68;46.82;94942.60;1749811;81;21081;-53
2021/03/07 08:18:04;;;;;;;21.10;15.65;;;;;;;2.96;46.10;94939.02;1749898;82;22035;-54
2021/03/07 08:20:44;;;;;;;14.85;11.90;;;;;;;3.10;45.31;94934.33;1751279;80;21136;-51
2021/03/07 08:23:23;;;;;;;14.30;10.78;;;;;;;3.25;44.28;94933.67;1712990;82;21062;-53
2021/03/07 08:25:55;;;;;;;12.40;10.08;;;;;;;3.38;43.66;94915.75;1751316;81;21134;-51
2021/03/07 08:28:37;;;;;;;12.47;9.83;;;;;;;3.44;42.13;94914.91;1743646;82;21117;-54
2021/03/07 08:31:22;;;;;;;19.07;14.85;;;;;;;3.54;41.97;94900.48;1742324;82;21275;-52
2021/03/07 08:33:51;;;;;;;21.85;15.43;;;;;;;3.69;42.75;94912.23;1799117;77;21044;-53
2021/03/07 08:36:25;;;;;;;18.00;13.13;;;;;;;3.87;42.62;94905.31;1791043;77;21065;-52
2021/03/07 08:38:59;;;;;;;12.07;10.43;;;;;;;4.08;42.07;94909.23;1750769;80;21176;-50
2021/03/07 08:41:42;;;;;;;31.30;23.10;;;;;;;4.29;40.21;94903.02;1798215;77;21545;-51
2021/03/07 08:44:11;;;;;;;;;;;;;;;4.32;40.43;94899.48;1751017;80;21338;-51
2021/03/07 08:46:46;;;;;;;13.88;9.08;;;;;;;4.45;39.54;94903.83;1751485;81;20235;-50
2021/03/07 08:49:22;;;;;;;10.70;8.98;;;;;;;4.61;39.81;94902.09;1751381;80;21152;-57
2021/03/07 08:51:57;;;;;;;20.12;14.45;;;;;;;4.74;38.71;94894.96;1751416;82;21524;-52
2021/03/07 08:54:29;;;;;;;14.33;10.53;;;;;;;4.80;38.78;94894.69;1751506;82;21604;-52
2021/03/07 08:57:00;;;;;;;12.90;8.73;;;;;;;4.84;38.45;94890.57;1800996;77;21711;-54
2021/03/07 08:59:28;;;;;;;12.45;9.63;;;;;;;4.84;38.38;94877.73;1750960;81;21105;-52
2021/03/07 09:01:57;;;;;;;10.65;9.58;;;;;;;4.88;38.69;94872.22;1746906;81;21125;-50
2021/03/07 09:04:35;;;;;;;12.23;9.28;;;;;;;4.84;38.43;94867.41;1743627;81;21145;-51
2021/03/07 09:07:04;;;;;;;16.82;13.85;;;;;;;4.86;38.34;94872.64;1739591;81;21164;-52
2021/03/07 09:09:34;;;;;;;13.58;9.80;;;;;;;4.95;38.93;94859.28;1801821;79;22153;-52
2021/03/07 09:12:06;;;;;;;9.58;8.53;;;;;;;5.06;38.03;94877.66;1750714;81;21153;-52
2021/03/07 09:14:38;;;;;;;12.58;8.93;;;;;;;5.09;38.10;94856.96;1738285;81;21154;-54
2021/03/07 09:17:08;;;;;;;10.25;8.33;;;;;;;5.11;37.90;94858.11;1793573;79;21080;-51
2021/03/07 09:19:41;;;;;;;12.78;9.78;;;;;;;5.13;37.84;94846.20;1805027;78;21108;-51
2021/03/07 09:22:20;;;;;;;16.40;10.88;;;;;;;5.19;37.96;94850.00;1805184;79;21357;-52
2021/03/07 09:25:06;;;;;;;10.88;9.28;;;;;;;5.22;37.94;94846.48;1799433;79;21076;-54
2021/03/07 09:27:42;;;;;;;18.25;10.08;;;;;;;5.24;37.53;94842.75;1805189;79;21142;-50
2021/03/07 09:30:17;;;;;;;12.82;8.95;;;;;;;5.29;38.17;94835.46;1803195;78;21496;-51
2021/03/07 09:32:50;;;;;;;11.45;8.98;;;;;;;5.38;37.63;94842.56;1751041;80;21166;-52
2021/03/07 09:35:31;;;;;;;14.50;9.83;;;;;;;5.43;38.00;94838.00;1796298;79;21192;-51
2021/03/07 09:38:06;;;;;;;10.32;8.60;;;;;;;5.50;38.14;94840.03;1803689;77;21056;-51
2021/03/07 09:40:40;;;;;;;13.03;8.55;;;;;;;5.65;37.19;94833.77;1751603;81;21149;-55
2021/03/07 09:43:14;;;;;;;12.37;9.43;;;;;;;5.71;36.32;94830.73;1747046;81;21093;-51
2021/03/07 09:45:49;;;;;;;10.00;8.58;;;;;;;5.87;36.49;94819.98;1732586;80;21082;-52
2021/03/07 09:48:22;;;;;;;12.70;9.48;;;;;;;5.97;35.22;94821.78;1805223;79;21248;-51
2021/03/07 09:50:51;;;;;;;12.15;9.03;;;;;;;5.97;36.14;94814.95;1805295;79;21088;-53
2021/03/07 09:53:20;;;;;;;12.13;9.13;;;;;;;6.08;35.27;94816.31;1789959;77;21185;-52
2021/03/07 09:55:49;;;;;;;12.30;8.38;;;;;;;6.24;34.93;94811.53;1751378;81;21145;-51
2021/03/07 09:58:17;;;;;;;9.35;8.18;;;;;;;6.48;34.88;94825.36;1723074;80;21133;-51
2021/03/07 10:00:52;;;;;;;107.07;34.40;;;;;;;6.69;34.28;94802.47;1744889;81;21585;-55
2021/03/07 10:03:23;;;;;;;12.15;9.40;;;;;;;6.84;34.61;94808.42;1748715;81;21069;-55
2021/03/07 10:06:08;;;;;;;11.08;9.23;;;;;;;7.02;34.54;94809.62;1749804;80;21142;-52
2021/03/07 10:08:39;;;;;;;12.30;8.78;;;;;;;7.29;33.83;94811.56;1739094;81;21170;-52
2021/03/07 10:11:17;;;;;;;11.63;9.03;;;;;;;7.50;33.97;94803.66;1805212;79;21516;-51
2021/03/07 10:13:48;;;;;;;13.62;8.75;;;;;;;7.74;33.29;94804.28;1797983;79;21533;-54
2021/03/07 10:16:27;;;;;;;9.53;7.97;;;;;;;7.83;32.98;94809.33;1800147;77;37652;-51
2021/03/07 10:19:09;;;;;;;10.35;7.47;;;;;;;8.11;32.68;94804.52;1793029;77;21587;-51
2021/03/07 10:21:37;;;;;;;10.98;7.20;;;;;;;8.60;32.87;94793.67;1750847;80;21073;-52
2021/03/07 10:24:13;;;;;;;13.68;8.70;;;;;;;9.11;30.80;94788.51;1802965;77;21275;-54
2021/03/07 10:26:43;;;;;;;11.60;8.55;;;;;;;9.30;30.73;94789.70;1750139;80;21375;-55
2021/03/07 10:29:28;;;;;;;15.20;10.48;;;;;;;9.71;31.38;94773.72;1805065;79;21068;-53
2021/03/07 10:32:10;;;;;;;13.48;9.45;;;;;;;10.20;30.74;94773.52;1792067;79;21188;-54
2021/03/07 10:34:42;;;;;;;8.23;6.47;;;;;;;10.58;29.70;94774.95;1750924;81;21106;-51
2021/03/07 10:37:40;;;;;;;10.38;7.95;;;;;;;10.89;27.99;94773.02;1802216;77;21151;-55
2021/03/07 10:40:11;;;;;;;10.63;6.97;;;;;;;11.08;29.07;94765.83;1805184;78;21209;-55
2021/03/07 10:42:42;;;;;;;6.90;6.17;;;;;;;11.45;27.81;94774.45;1794893;77;21081;-52
2021/03/07 10:45:21;;;;;;;10.27;6.93;;;;;;;11.73;27.38;94764.35;1804435;78;21135;-52
2021/03/07 10:48:01;;;;;;;7.90;6.75;;;;;;;12.07;26.56;94755.27;1805154;79;21547;-53
2021/03/07 10:50:31;;;;;;;10.08;6.20;;;;;;;12.28;26.48;94758.52;1805103;78;21079;-54
2021/03/07 10:53:00;;;;;;;8.60;7.47;;;;;;;12.51;25.79;94746.91;1804792;79;21378;-53
2021/03/07 10:55:29;;;;;;;6.78;5.62;;;;;;;12.64;25.63;94743.38;1799361;77;21568;-54
2021/03/07 10:57:57;;;;;;;7.97;6.70;;;;;;;12.66;25.30;94738.94;1751175;80;21157;-54
2021/03/07 11:00:26;;;;;;;8.33;6.67;;;;;;;12.79;25.03;94740.94;1748211;81;21137;-53
2021/03/07 11:02:55;;;;;;;10.08;6.75;;;;;;;12.88;24.96;94738.78;1726560;80;21219;-54
2021/03/07 11:05:23;;;;;;;9.25;6.40;;;;;;;12.97;24.44;94723.00;1729134;81;21256;-53
2021/03/07 11:07:52;;;;;;;7.58;5.95;;;;;;;12.99;24.33;94730.20;1712936;83;21508;-54
2021/03/07 11:10:22;;;;;;;9.78;6.80;;;;;;;13.01;24.35;94728.34;1751163;80;21207;-54
2021/03/07 11:12:50;;;;;;;9.13;6.92;;;;;;;13.16;25.25;94713.45;1805106;79;21494;-52
2021/03/07 11:15:19;;;;;;;12.07;8.95;;;;;;;13.39;24.66;94705.07;1805078;79;21051;-53
2021/03/07 11:17:48;;;;;;;9.20;7.47;;;;;;;13.53;24.21;94713.48;1796845;79;22275;-53
2021/03/07 11:20:18;;;;;;;13.08;9.20;;;;;;;13.71;23.51;94702.95;1750938;81;21149;-54
2021/03/07 11:22:47;;;;;;;8.55;6.58;;;;;;;13.85;23.99;94703.66;1798885;77;21164;-54
2021/03/07 11:25:15;;;;;;;8.43;7.00;;;;;;;14.05;23.27;94696.94;1750792;80;21168;-53
2021/03/07 11:27:44;;;;;;;8.78;6.97;;;;;;;14.34;23.18;94695.71;1751481;81;21700;-54
2021/03/07 11:30:14;;;;;;;26.37;15.72;;;;;;;14.55;22.68;94687.84;1718028;82;21366;-53
2021/03/07 11:32:43;;;;;;;10.65;8.03;;;;;;;14.73;22.52;94687.70;1719488;83;21078;-55
2021/03/07 11:35:12;;;;;;;10.82;7.00;;;;;;;14.62;23.12;94681.93;1740649;80;21185;-54
2021/03/07 11:37:41;;;;;;;9.00;6.92;;;;;;;14.15;22.31;94677.67;1738414;82;21117;-55